Time;durP1;ratioP1;P1;durP2;ratioP2;P2;SDS_P1;SDS_P2;PMS_P1;PMS_P2;Temp;Humidity;BMP_temperature;BMP_pressure;BME280_temperature;BME280_humidity;BME280_pressure;Samples;Min_cycle;Max_cycle;Signal;HPM_P1;HPM_P2
2022/01/15 00:00:40;;;;;;;2.05;1.15;;;24.00;51.70;;;;;;5033169;28;20250;-42
2022/01/15 00:03:15;;;;;;;2.53;1.17;;;24.00;51.60;;;;;;5029275;28;20638;-40
2022/01/15 00:05:49;;;;;;;2.30;1.30;;;24.00;51.60;;;;;;5027242;28;20195;-41
2022/01/15 00:08:22;;;;;;;1.50;1.05;;;24.10;51.60;;;;;;5021159;28;20672;-41
2022/01/15 00:10:56;;;;;;;2.40;1.20;;;24.10;51.60;;;;;;5017750;28;20236;-44
2022/01/15 00:13:29;;;;;;;3.17;1.23;;;24.10;51.60;;;;;;5016660;28;20735;-41
2022/01/15 00:16:10;;;;;;;2.25;1.50;;;24.20;51.60;;;;;;5026886;28;20200;-41
2022/01/15 00:18:47;;;;;;;1.50;1.20;;;24.10;52.20;;;;;;5014137;28;20286;-41
2022/01/15 00:21:26;;;;;;;2.58;1.17;;;24.20;51.50;;;;;;5031108;28;20284;-40
2022/01/15 00:23:56;;;;;;;2.63;1.20;;;24.20;51.50;;;;;;5029103;28;20263;-42
2022/01/15 00:26:32;;;;;;;3.45;1.05;;;24.20;51.50;;;;;;5025097;28;20254;-41
2022/01/15 00:29:03;;;;;;;3.00;1.30;;;24.20;51.40;;;;;;5032957;28;20199;-40
2022/01/15 00:31:41;;;;;;;1.38;1.13;;;24.30;51.40;;;;;;5023615;28;20197;-45
2022/01/15 00:34:14;;;;;;;2.92;1.20;;;24.30;51.30;;;;;;5014638;28;20692;-45
2022/01/15 00:36:47;;;;;;;3.38;1.20;;;24.30;51.30;;;;;;5014649;28;20200;-42
2022/01/15 00:39:17;;;;;;;3.13;1.40;;;24.30;51.20;;;;;;5013677;28;20236;-47
2022/01/15 00:41:48;;;;;;;1.45;1.00;;;24.40;51.20;;;;;;5034732;28;20199;-41
2022/01/15 00:44:21;;;;;;;1.70;0.93;;;24.40;51.10;;;;;;5029234;28;20256;-41
2022/01/15 00:46:51;;;;;;;2.10;1.30;;;24.40;51.10;;;;;;5026435;28;20289;-45
2022/01/15 00:49:24;;;;;;;2.00;1.23;;;24.40;51.00;;;;;;5028335;28;20223;-41
2022/01/15 00:51:57;;;;;;;1.00;0.90;;;24.40;50.90;;;;;;5027402;28;20204;-42
2022/01/15 00:54:29;;;;;;;2.88;1.13;;;24.50;51.00;;;;;;5028106;28;20225;-41
2022/01/15 00:57:00;;;;;;;3.50;1.10;;;24.50;51.00;;;;;;5024990;28;20231;-41
2022/01/15 00:59:33;;;;;;;1.92;1.10;;;24.50;51.00;;;;;;5028843;28;20227;-42
2022/01/15 01:02:04;;;;;;;1.73;1.25;;;24.50;50.90;;;;;;5025537;28;20254;-41
2022/01/15 01:04:35;;;;;;;1.38;1.10;;;24.50;50.90;;;;;;5025214;28;20219;-42
2022/01/15 01:07:21;;;;;;;2.55;1.42;;;24.50;50.80;;;;;;5027506;28;20640;-41
2022/01/15 01:10:05;;;;;;;1.88;1.10;;;24.50;50.80;;;;;;5024744;28;20688;-42
2022/01/15 01:12:56;;;;;;;3.63;1.20;;;24.60;50.80;;;;;;5028378;28;20217;-40
2022/01/15 01:21:33;;;;;;;3.75;1.20;;;24.70;50.70;;;;;;5011112;28;20199;-42
2022/01/15 01:24:08;;;;;;;2.63;1.20;;;24.70;50.60;;;;;;5028560;28;20594;-43
2022/01/15 01:26:44;;;;;;;3.47;1.25;;;24.70;50.60;;;;;;5013563;28;20229;-42
2022/01/15 01:29:26;;;;;;;2.90;1.17;;;24.70;50.60;;;;;;5011665;28;20310;-41
2022/01/15 01:32:03;;;;;;;2.78;1.20;;;24.70;50.50;;;;;;5025145;28;20206;-41
2022/01/15 01:34:44;;;;;;;3.67;1.05;;;24.70;50.50;;;;;;5025009;28;20216;-41
2022/01/15 01:37:24;;;;;;;2.70;1.30;;;24.70;50.50;;;;;;5051491;22;20222;-41
2022/01/15 01:40:15;;;;;;;3.05;1.30;;;24.70;50.50;;;;;;5059580;28;20716;-41
2022/01/15 01:42:55;;;;;;;1.80;1.10;;;24.80;50.40;;;;;;5060591;28;20231;-40
2022/01/15 01:45:28;;;;;;;1.85;1.20;;;24.80;50.40;;;;;;5055832;28;20202;-40
2022/01/15 01:48:02;;;;;;;1.67;1.10;;;24.80;50.40;;;;;;5067662;28;20241;-45
2022/01/15 01:50:32;;;;;;;3.15;1.10;;;24.80;50.30;;;;;;5052126;28;20357;-39
2022/01/15 01:53:11;;;;;;;1.15;1.02;;;24.80;50.30;;;;;;5066949;28;20246;-43
2022/01/15 01:55:46;;;;;;;2.10;0.80;;;24.80;50.20;;;;;;5065312;28;20195;-39
2022/01/15 01:58:25;;;;;;;1.88;1.10;;;24.90;50.20;;;;;;5064360;28;20283;-46
2022/01/15 02:01:01;;;;;;;1.00;0.90;;;24.90;50.20;;;;;;5063874;28;20651;-43
2022/01/15 02:03:32;;;;;;;2.08;1.00;;;24.90;50.20;;;;;;5065138;28;20601;-43
2022/01/15 02:06:02;;;;;;;2.47;1.15;;;24.90;50.20;;;;;;5064433;28;20227;-40
2022/01/15 02:08:36;;;;;;;2.05;1.25;;;24.90;50.10;;;;;;5052665;28;20256;-42
2022/01/15 02:11:11;;;;;;;2.90;1.27;;;24.90;50.10;;;;;;5065914;28;20195;-47
2022/01/15 02:13:43;;;;;;;1.63;1.23;;;24.90;50.00;;;;;;5067242;28;20307;-43
2022/01/15 02:16:17;;;;;;;2.80;1.30;;;24.90;50.00;;;;;;5066033;28;20288;-41
2022/01/15 02:18:48;;;;;;;3.20;1.20;;;24.90;50.00;;;;;;5064885;28;20198;-41
2022/01/15 02:24:07;;;;;;;4.85;1.85;;;25.00;50.00;;;;;;5057759;28;20237;-40
2022/01/15 02:26:39;;;;;;;4.22;1.05;;;25.00;49.90;;;;;;5065118;28;20234;-40
2022/01/15 02:29:13;;;;;;;2.45;1.27;;;25.00;49.90;;;;;;5051505;28;20233;-41
2022/01/15 02:31:49;;;;;;;1.05;0.90;;;25.00;49.90;;;;;;5050624;28;20229;-44
2022/01/15 02:34:22;;;;;;;2.20;1.13;;;25.00;49.80;;;;;;5064625;28;20215;-40
2022/01/15 02:39:51;;;;;;;1.25;1.10;;;25.10;49.90;;;;;;5793527;22;20580;-42
2022/01/15 02:42:30;;;;;;;2.60;1.23;;;25.10;49.80;;;;;;5028326;28;20214;-41
2022/01/15 02:45:03;;;;;;;1.35;1.13;;;25.10;49.80;;;;;;5007721;28;20210;-42
2022/01/15 02:50:22;;;;;;;2.45;1.25;;;25.10;49.70;;;;;;5007914;28;20195;-42
2022/01/15 02:52:52;;;;;;;2.75;0.90;;;25.10;49.70;;;;;;5008828;28;20236;-42
2022/01/15 02:55:25;;;;;;;2.70;1.30;;;25.20;49.70;;;;;;5010095;28;20204;-41
2022/01/15 02:57:55;;;;;;;2.05;0.88;;;25.20;49.70;;;;;;5011148;28;20661;-45
2022/01/15 03:00:27;;;;;;;4.25;1.10;;;25.20;49.60;;;;;;5013560;28;20207;-41
2022/01/15 03:02:57;;;;;;;2.38;1.20;;;25.20;49.60;;;;;;5013633;28;20311;-41
2022/01/15 03:05:27;;;;;;;2.63;1.00;;;25.20;49.50;;;;;;5014073;28;20251;-44
2022/01/15 03:07:58;;;;;;;1.88;1.20;;;25.30;49.60;;;;;;5014181;28;20284;-41
2022/01/15 03:10:30;;;;;;;3.33;1.20;;;25.30;49.50;;;;;;5013541;28;20229;-42
2022/01/15 03:13:08;;;;;;;3.33;1.13;;;25.30;49.50;;;;;;5013147;28;20321;-41
2022/01/15 03:15:39;;;;;;;2.55;0.90;;;25.30;49.40;;;;;;5013365;28;20205;-41
2022/01/15 03:18:09;;;;;;;3.35;1.00;;;25.30;49.40;;;;;;5013492;28;20232;-44
2022/01/15 03:20:40;;;;;;;2.50;1.23;;;25.30;49.40;;;;;;5013449;28;20636;-44
2022/01/15 03:23:10;;;;;;;2.47;1.13;;;25.30;49.30;;;;;;5010527;28;20649;-42
2022/01/15 03:25:43;;;;;;;1.95;1.20;;;25.30;49.30;;;;;;5013546;28;20228;-41
2022/01/15 03:28:13;;;;;;;2.28;1.13;;;25.40;49.30;;;;;;5013579;28;20883;-41
2022/01/15 03:30:44;;;;;;;2.55;1.10;;;25.40;49.30;;;;;;5013488;28;20267;-41
2022/01/15 03:33:14;;;;;;;2.80;1.27;;;25.40;49.20;;;;;;5013319;28;20251;-41
2022/01/15 03:35:45;;;;;;;2.45;1.23;;;25.50;49.20;;;;;;5013031;28;20233;-44
2022/01/15 03:38:16;;;;;;;2.05;1.10;;;25.50;49.20;;;;;;5013379;28;20236;-42
2022/01/15 03:40:48;;;;;;;2.53;1.10;;;25.50;49.10;;;;;;5013221;28;20720;-41
2022/01/15 03:43:19;;;;;;;4.07;1.20;;;25.50;49.70;;;;;;5012931;28;20282;-42
2022/01/15 03:45:49;;;;;;;3.03;1.17;;;25.50;49.10;;;;;;5007889;28;20197;-41
2022/01/15 03:48:20;;;;;;;1.63;1.00;;;25.50;49.10;;;;;;5012970;28;20233;-41
2022/01/15 03:50:50;;;;;;;1.83;1.10;;;25.50;49.00;;;;;;5012809;28;20280;-41
2022/01/15 03:53:22;;;;;;;1.63;0.90;;;25.60;49.00;;;;;;5012609;28;20263;-46
2022/01/15 03:55:55;;;;;;;1.58;1.02;;;25.60;49.00;;;;;;5012974;28;20197;-48
2022/01/15 03:58:25;;;;;;;1.75;1.10;;;25.60;49.00;;;;;;5012783;28;20668;-47
2022/01/15 04:00:56;;;;;;;3.38;1.15;;;25.70;49.00;;;;;;5012363;28;20300;-52
2022/01/15 04:03:26;;;;;;;1.25;1.00;;;25.70;49.00;;;;;;5012019;28;20316;-47
2022/01/15 04:05:57;;;;;;;2.13;1.13;;;25.70;48.90;;;;;;5012925;28;20291;-44
2022/01/15 04:08:27;;;;;;;2.33;1.05;;;25.70;48.90;;;;;;5012597;28;20289;-45
2022/01/15 04:10:59;;;;;;;3.53;1.27;;;25.80;48.90;;;;;;5012128;28;20239;-48
2022/01/15 04:13:30;;;;;;;1.48;1.00;;;25.80;48.80;;;;;;5012682;28;20279;-45
2022/01/15 04:16:00;;;;;;;2.88;1.10;;;25.80;48.80;;;;;;5009700;28;20623;-41
2022/01/15 04:18:36;;;;;;;1.95;1.13;;;25.80;48.80;;;;;;5002369;28;20244;-42
2022/01/15 04:21:09;;;;;;;2.17;1.25;;;25.90;48.80;;;;;;4993067;28;20232;-43
2022/01/15 04:23:39;;;;;;;1.83;1.08;;;25.90;48.70;;;;;;5000182;28;20287;-43
2022/01/15 04:26:13;;;;;;;1.15;1.05;;;25.90;48.70;;;;;;5012130;28;20284;-41
2022/01/15 04:28:44;;;;;;;1.60;1.10;;;25.90;48.70;;;;;;5012111;28;20251;-46
2022/01/15 04:31:14;;;;;;;1.95;1.00;;;25.90;48.60;;;;;;5011739;28;20281;-46
2022/01/15 04:33:44;;;;;;;1.95;1.00;;;26.00;48.60;;;;;;5012166;28;20253;-43
2022/01/15 04:36:15;;;;;;;2.67;1.45;;;26.00;48.60;;;;;;5012805;28;20266;-43
2022/01/15 04:38:46;;;;;;;1.60;0.90;;;26.00;48.50;;;;;;5012250;28;20288;-42
2022/01/15 04:41:18;;;;;;;2.55;1.13;;;26.00;48.50;;;;;;5012265;28;20305;-43
2022/01/15 04:43:48;;;;;;;1.90;0.98;;;26.00;48.40;;;;;;5012053;28;20270;-44
2022/01/15 04:46:19;;;;;;;2.05;0.95;;;26.00;48.40;;;;;;5011766;28;20628;-41
2022/01/15 04:48:49;;;;;;;1.48;1.15;;;26.00;48.40;;;;;;5011806;28;20280;-42
2022/01/15 04:51:20;;;;;;;2.25;1.30;;;26.10;48.50;;;;;;5009484;28;20239;-41
2022/01/15 04:53:50;;;;;;;1.33;1.05;;;26.10;48.40;;;;;;5011785;28;20308;-44
2022/01/15 04:56:22;;;;;;;2.55;1.00;;;26.10;48.40;;;;;;5005875;28;20281;-45
2022/01/15 04:58:54;;;;;;;2.00;1.00;;;26.10;48.40;;;;;;4992222;28;20285;-45
2022/01/15 05:01:25;;;;;;;2.90;0.90;;;26.20;48.40;;;;;;4996093;28;20265;-45
2022/01/15 05:03:55;;;;;;;1.70;1.27;;;26.20;48.40;;;;;;5011665;28;20323;-46
2022/01/15 05:06:26;;;;;;;1.52;0.90;;;26.20;48.30;;;;;;5011540;28;20287;-41
2022/01/15 05:09:03;;;;;;;2.05;1.13;;;26.20;48.30;;;;;;5002037;28;20276;-44
2022/01/15 05:11:46;;;;;;;2.42;1.38;;;26.20;48.20;;;;;;4992350;28;20194;-42
2022/01/15 05:14:18;;;;;;;1.95;1.00;;;26.30;48.30;;;;;;4992291;28;20225;-41
2022/01/15 05:16:49;;;;;;;1.77;0.93;;;26.30;48.20;;;;;;4998255;28;20724;-41
2022/01/15 05:19:19;;;;;;;2.70;1.17;;;26.30;48.20;;;;;;5011506;28;20728;-46
2022/01/15 05:21:49;;;;;;;1.58;0.93;;;26.30;48.20;;;;;;5010872;28;20740;-44
2022/01/15 05:24:20;;;;;;;1.40;1.17;;;26.30;48.20;;;;;;5011364;28;20339;-41
2022/01/15 05:26:52;;;;;;;2.25;1.17;;;26.30;48.30;;;;;;5007675;28;20292;-41
2022/01/15 05:29:23;;;;;;;2.25;1.20;;;26.30;48.20;;;;;;5010966;28;20275;-43
2022/01/15 05:31:53;;;;;;;1.02;0.90;;;26.30;48.10;;;;;;5010788;28;20300;-42
2022/01/15 05:34:24;;;;;;;2.53;1.20;;;26.30;48.20;;;;;;5010741;28;20217;-41
2022/01/15 05:36:54;;;;;;;2.40;1.08;;;26.30;48.70;;;;;;5011510;28;20228;-41
2022/01/15 05:39:25;;;;;;;1.05;0.80;;;26.40;48.20;;;;;;5011045;28;20243;-41
2022/01/15 05:41:57;;;;;;;1.67;1.08;;;26.40;48.10;;;;;;5006405;28;20272;-44
2022/01/15 05:44:28;;;;;;;1.50;1.00;;;26.40;48.10;;;;;;4991136;28;20241;-41
2022/01/15 05:46:58;;;;;;;2.08;1.00;;;26.40;48.10;;;;;;4997705;28;20677;-41
2022/01/15 05:49:29;;;;;;;2.58;0.90;;;26.40;48.00;;;;;;5010663;28;20287;-46
2022/01/15 05:51:59;;;;;;;2.72;1.10;;;26.40;48.10;;;;;;5010968;28;20197;-42
2022/01/15 05:54:30;;;;;;;1.88;0.98;;;26.50;48.10;;;;;;5010711;28;20223;-41
2022/01/15 05:57:02;;;;;;;2.25;0.90;;;26.40;47.90;;;;;;5010633;28;20771;-45
2022/01/15 05:59:33;;;;;;;2.70;1.23;;;26.50;48.00;;;;;;5010683;28;20288;-40
2022/01/15 06:02:03;;;;;;;1.77;1.13;;;26.50;48.00;;;;;;5010586;28;20695;-45
2022/01/15 06:04:33;;;;;;;2.38;1.30;;;26.50;47.90;;;;;;5010576;28;20316;-41
2022/01/15 06:07:04;;;;;;;1.90;0.88;;;26.50;48.20;;;;;;5010820;28;20259;-43
2022/01/15 06:09:35;;;;;;;2.40;1.10;;;26.50;47.90;;;;;;5010659;28;20283;-41
2022/01/15 06:12:09;;;;;;;1.77;1.15;;;26.50;48.00;;;;;;5010232;28;20740;-43
2022/01/15 06:14:39;;;;;;;2.25;1.25;;;26.50;47.90;;;;;;5010168;28;20699;-42
2022/01/15 06:17:10;;;;;;;2.00;1.20;;;26.40;47.90;;;;;;5009856;28;20228;-41
2022/01/15 06:19:42;;;;;;;1.45;0.90;;;26.40;47.90;;;;;;5010546;28;20566;-48
2022/01/15 06:22:13;;;;;;;1.50;0.93;;;26.50;48.00;;;;;;5010530;28;20201;-41
2022/01/15 06:24:44;;;;;;;1.50;0.93;;;26.40;47.90;;;;;;5010414;28;20767;-45
2022/01/15 06:27:19;;;;;;;1.77;1.23;;;26.50;48.00;;;;;;5010083;28;20232;-48
2022/01/15 06:29:49;;;;;;;2.28;1.00;;;26.50;48.00;;;;;;5010307;28;20208;-44
2022/01/15 06:32:20;;;;;;;2.55;0.80;;;26.50;48.00;;;;;;5009220;28;20224;-42
2022/01/15 06:34:50;;;;;;;2.78;1.13;;;26.50;48.00;;;;;;5010054;28;20316;-41
2022/01/15 06:37:21;;;;;;;2.15;1.27;;;26.50;48.00;;;;;;5010186;28;20203;-45
2022/01/15 06:39:52;;;;;;;1.95;1.02;;;26.50;47.90;;;;;;5009752;28;20284;-49
2022/01/15 06:42:24;;;;;;;1.35;1.17;;;26.50;48.00;;;;;;5010104;28;20275;-43
2022/01/15 06:44:54;;;;;;;2.17;0.90;;;26.50;48.00;;;;;;5004490;28;20237;-43
2022/01/15 06:47:25;;;;;;;1.20;0.90;;;26.50;48.00;;;;;;4996983;28;20276;-45
2022/01/15 06:49:55;;;;;;;1.13;1.00;;;26.50;48.00;;;;;;5009818;28;20684;-42
2022/01/15 06:52:26;;;;;;;1.63;0.90;;;26.50;47.90;;;;;;5009822;28;20671;-42
2022/01/15 06:54:56;;;;;;;2.60;1.10;;;26.50;48.00;;;;;;5008149;28;20882;-42
2022/01/15 06:57:29;;;;;;;1.90;1.00;;;26.50;48.00;;;;;;5001933;28;20224;-41
2022/01/15 06:59:59;;;;;;;2.10;1.00;;;26.50;48.00;;;;;;5008423;28;20296;-46
2022/01/15 07:02:30;;;;;;;2.38;1.10;;;26.50;47.90;;;;;;5007332;28;20276;-44
2022/01/15 07:05:00;;;;;;;1.70;0.80;;;26.50;47.90;;;;;;5002858;28;20221;-44
2022/01/15 07:07:31;;;;;;;3.42;1.10;;;26.50;47.90;;;;;;5007983;28;20292;-51
2022/01/15 07:10:01;;;;;;;1.75;1.10;;;26.50;47.90;;;;;;5010724;28;20188;-44
2022/01/15 07:12:35;;;;;;;1.95;1.05;;;26.50;47.90;;;;;;5009846;28;20283;-41
2022/01/15 07:15:06;;;;;;;3.38;1.20;;;26.50;47.90;;;;;;5010787;28;20251;-44
2022/01/15 07:17:42;;;;;;;2.22;1.15;;;26.50;47.90;;;;;;5010608;28;20283;-42
2022/01/15 07:20:14;;;;;;;2.08;0.95;;;26.50;47.90;;;;;;5012939;28;20239;-41
2022/01/15 07:22:45;;;;;;;3.58;1.20;;;26.50;47.90;;;;;;5010729;28;20288;-47
2022/01/15 07:25:16;;;;;;;4.05;1.55;;;26.50;47.90;;;;;;5011207;28;20258;-42
2022/01/15 07:27:49;;;;;;;4.18;1.30;;;26.50;47.90;;;;;;5016390;28;20223;-44
2022/01/15 07:30:19;;;;;;;6.05;1.40;;;26.50;47.90;;;;;;5019886;28;20288;-41
2022/01/15 07:32:50;;;;;;;3.53;1.70;;;26.40;47.80;;;;;;5008762;28;20278;-41
2022/01/15 07:35:21;;;;;;;6.05;1.40;;;26.40;47.80;;;;;;5020611;28;20239;-41
2022/01/15 07:37:51;;;;;;;5.10;1.35;;;26.40;47.80;;;;;;5050285;22;20243;-44
2022/01/15 07:40:21;;;;;;;3.10;1.50;;;26.40;47.90;;;;;;5044701;28;20620;-45
2022/01/15 07:42:54;;;;;;;12.77;2.08;;;26.40;47.90;;;;;;5046115;28;20290;-41
2022/01/15 07:45:24;;;;;;;4.22;1.92;;;26.30;47.90;;;;;;5048403;28;20317;-40
2022/01/15 07:47:55;;;;;;;4.65;1.65;;;26.30;47.90;;;;;;5048154;28;20283;-41
2022/01/15 07:50:25;;;;;;;3.28;1.20;;;26.30;47.90;;;;;;5058043;28;20295;-43
2022/01/15 07:52:57;;;;;;;2.58;1.38;;;26.20;47.90;;;;;;5053196;28;20327;-42
2022/01/15 07:55:28;;;;;;;4.90;1.55;;;26.20;47.90;;;;;;5063044;28;20287;-46
2022/01/15 07:58:00;;;;;;;4.47;1.70;;;26.20;47.90;;;;;;5061965;28;20270;-41
2022/01/15 08:00:31;;;;;;;4.15;1.55;;;26.20;48.00;;;;;;5048787;28;20751;-42
2022/01/15 08:03:02;;;;;;;3.83;1.48;;;26.10;47.90;;;;;;5050338;28;20290;-42
2022/01/15 08:05:32;;;;;;;4.93;1.70;;;26.10;48.70;;;;;;5053672;28;20301;-41
2022/01/15 08:08:03;;;;;;;4.50;1.75;;;26.10;48.00;;;;;;5059769;28;20287;-41
2022/01/15 08:10:33;;;;;;;3.53;1.67;;;26.10;48.00;;;;;;5049809;28;20722;-40
2022/01/15 08:13:06;;;;;;;3.60;1.70;;;26.10;48.00;;;;;;5049940;28;20304;-40
2022/01/15 08:15:36;;;;;;;3.25;1.38;;;26.00;48.00;;;;;;5051126;28;20283;-42
2022/01/15 08:18:07;;;;;;;2.45;1.40;;;26.00;48.10;;;;;;5047794;28;20784;-41
2022/01/15 08:20:37;;;;;;;1.48;1.10;;;26.00;48.10;;;;;;5048912;28;20302;-41
2022/01/15 08:23:08;;;;;;;3.97;1.38;;;26.00;48.10;;;;;;5051299;28;20298;-41
2022/01/15 08:25:38;;;;;;;4.07;1.58;;;25.90;48.10;;;;;;5046497;28;20770;-40
2022/01/15 08:28:11;;;;;;;3.53;1.60;;;25.90;48.10;;;;;;5048950;28;20635;-40
2022/01/15 08:30:41;;;;;;;3.50;1.38;;;25.90;48.10;;;;;;5050836;28;20726;-41
2022/01/15 08:33:11;;;;;;;2.83;1.23;;;25.80;48.10;;;;;;5049276;28;20330;-41
2022/01/15 08:35:42;;;;;;;2.55;1.48;;;25.80;48.20;;;;;;5051578;28;20190;-40
2022/01/15 08:38:12;;;;;;;2.78;1.40;;;25.80;48.20;;;;;;5052693;28;20209;-48
2022/01/15 08:40:43;;;;;;;2.25;1.30;;;25.70;48.20;;;;;;5055409;28;20328;-40
2022/01/15 08:43:15;;;;;;;3.97;1.35;;;25.70;48.20;;;;;;5049605;28;20310;-43
2022/01/15 08:45:47;;;;;;;3.35;1.35;;;25.70;48.30;;;;;;5048006;28;20721;-41
2022/01/15 08:48:19;;;;;;;3.78;1.50;;;25.70;48.30;;;;;;5048866;28;20868;-40
2022/01/15 08:50:50;;;;;;;2.72;1.23;;;25.60;48.20;;;;;;5050827;28;20289;-40
2022/01/15 08:53:21;;;;;;;3.17;1.55;;;25.60;48.30;;;;;;5048350;28;20306;-40
2022/01/15 08:55:52;;;;;;;2.00;1.27;;;25.60;48.30;;;;;;5048561;28;20199;-44
2022/01/15 08:58:25;;;;;;;2.45;1.15;;;25.50;48.30;;;;;;5047628;28;20715;-39
2022/01/15 09:00:57;;;;;;;2.97;1.10;;;25.50;48.30;;;;;;5050286;28;20208;-42
2022/01/15 09:03:28;;;;;;;3.47;1.27;;;25.50;48.40;;;;;;5064684;28;20214;-40
2022/01/15 09:05:58;;;;;;;2.35;1.27;;;25.50;48.40;;;;;;5053524;28;20218;-40
2022/01/15 09:08:29;;;;;;;1.73;1.20;;;25.40;48.30;;;;;;5057890;28;20283;-40
2022/01/15 09:10:59;;;;;;;2.88;1.30;;;25.40;48.40;;;;;;5059079;28;20199;-41
2022/01/15 09:13:32;;;;;;;3.30;1.30;;;25.40;48.30;;;;;;5039965;28;20302;-41
2022/01/15 09:16:02;;;;;;;2.00;1.35;;;25.30;48.30;;;;;;5034304;28;20295;-43
2022/01/15 09:18:34;;;;;;;2.22;1.20;;;25.30;48.30;;;;;;5046049;28;20278;-40
2022/01/15 09:21:04;;;;;;;2.28;1.30;;;25.30;48.30;;;;;;5042367;28;20200;-49
2022/01/15 09:23:35;;;;;;;2.90;1.30;;;25.20;48.20;;;;;;5048495;28;20267;-45
2022/01/15 09:26:07;;;;;;;3.05;1.15;;;25.20;48.30;;;;;;5038845;28;20212;-40
2022/01/15 09:31:26;;;;;;;1.77;1.00;;;25.10;48.30;;;;;;5032989;28;20200;-44
2022/01/15 09:33:57;;;;;;;2.95;1.50;;;25.10;48.30;;;;;;5041030;28;20222;-43
2022/01/15 09:36:27;;;;;;;1.85;1.10;;;25.10;48.40;;;;;;5048515;28;20637;-42
2022/01/15 09:38:58;;;;;;;2.65;1.30;;;25.00;48.40;;;;;;5034313;28;20283;-42
2022/01/15 09:41:29;;;;;;;2.13;1.02;;;25.00;48.40;;;;;;5037215;28;20535;-46
2022/01/15 09:44:02;;;;;;;1.75;1.25;;;25.00;48.40;;;;;;5048097;28;20734;-51
2022/01/15 09:46:33;;;;;;;3.38;1.42;;;25.00;48.40;;;;;;5043611;28;20317;-40
2022/01/15 09:49:05;;;;;;;2.55;1.20;;;24.90;48.40;;;;;;5043707;28;20291;-40
2022/01/15 09:51:35;;;;;;;2.10;1.20;;;24.90;48.40;;;;;;5032648;28;20288;-40
2022/01/15 09:54:06;;;;;;;1.52;1.20;;;24.90;48.40;;;;;;5045487;28;20269;-44
2022/01/15 09:56:37;;;;;;;3.28;1.17;;;24.80;48.40;;;;;;5046428;28;20687;-41
2022/01/15 09:59:09;;;;;;;5.00;1.50;;;24.80;48.40;;;;;;5047782;28;20278;-40
2022/01/15 10:01:39;;;;;;;1.92;1.20;;;24.80;48.40;;;;;;5044831;28;20287;-40
2022/01/15 10:04:10;;;;;;;2.38;1.30;;;24.70;48.40;;;;;;5047829;28;20322;-42
2022/01/15 10:07:01;;;;;;;1.83;1.15;;;24.70;48.50;;;;;;5055194;28;20408;-46
2022/01/15 10:09:31;;;;;;;1.02;0.88;;;24.70;48.50;;;;;;5051935;28;20287;-44
2022/01/15 10:12:01;;;;;;;1.70;1.10;;;24.60;48.50;;;;;;5066090;28;20369;-43
2022/01/15 10:14:35;;;;;;;2.55;1.20;;;24.60;48.50;;;;;;5051228;28;20616;-44
2022/01/15 10:17:21;;;;;;;2.38;1.08;;;24.50;48.50;;;;;;5053036;28;20287;-44
2022/01/15 10:19:52;;;;;;;2.05;1.05;;;24.50;48.50;;;;;;5063025;28;20234;-43
2022/01/15 10:22:24;;;;;;;1.60;1.17;;;24.50;48.60;;;;;;5050902;28;20289;-40
2022/01/15 10:24:59;;;;;;;3.90;1.17;;;24.40;48.50;;;;;;5048044;28;20310;-40
2022/01/15 10:27:32;;;;;;;2.05;0.95;;;24.40;48.60;;;;;;5058196;28;20273;-47
2022/01/15 10:30:09;;;;;;;1.30;0.82;;;24.40;48.60;;;;;;5051435;28;20195;-46
2022/01/15 10:32:41;;;;;;;1.10;0.95;;;24.40;48.60;;;;;;5061452;28;20873;-40
2022/01/15 10:35:17;;;;;;;2.50;1.20;;;24.30;48.50;;;;;;5047358;28;20282;-40
2022/01/15 10:37:53;;;;;;;2.08;1.23;;;24.30;48.50;;;;;;5045281;28;20210;-40
2022/01/15 10:40:25;;;;;;;2.10;1.08;;;24.30;48.50;;;;;;5046499;28;20219;-40
2022/01/15 10:42:57;;;;;;;2.22;1.30;;;24.30;48.60;;;;;;5045792;28;20220;-43
2022/01/15 10:45:31;;;;;;;2.70;1.20;;;24.30;48.60;;;;;;5042637;28;20311;-39
2022/01/15 10:48:03;;;;;;;1.80;1.20;;;24.20;48.60;;;;;;5048128;28;20570;-39
2022/01/15 10:50:35;;;;;;;2.78;1.52;;;24.20;49.20;;;;;;5044886;28;20772;-39
2022/01/15 10:53:10;;;;;;;2.22;0.98;;;24.20;48.70;;;;;;5046793;28;20218;-39
2022/01/15 10:55:41;;;;;;;2.90;1.30;;;24.10;48.70;;;;;;5044707;28;20199;-40
2022/01/15 10:58:13;;;;;;;1.88;1.10;;;24.10;48.70;;;;;;5047332;28;20291;-40
2022/01/15 11:00:46;;;;;;;1.30;1.10;;;24.00;48.70;;;;;;5047000;28;20242;-42
2022/01/15 11:03:18;;;;;;;2.28;1.20;;;24.00;48.80;;;;;;5045665;28;20691;-40
2022/01/15 11:05:50;;;;;;;1.25;1.00;;;24.00;48.70;;;;;;5048249;28;20222;-44
2022/01/15 11:08:23;;;;;;;1.45;1.00;;;24.00;48.70;;;;;;5046117;28;20188;-40
2022/01/15 11:10:55;;;;;;;1.98;1.05;;;23.90;48.70;;;;;;5049437;28;20282;-45
2022/01/15 11:13:27;;;;;;;0.98;0.82;;;23.90;48.70;;;;;;5053933;28;20310;-40
2022/01/15 11:16:02;;;;;;;1.25;0.90;;;23.90;48.70;;;;;;5058713;28;20195;-43
2022/01/15 11:18:34;;;;;;;1.92;1.05;;;23.80;48.70;;;;;;5049584;28;20218;-40
2022/01/15 11:21:06;;;;;;;2.17;1.27;;;23.80;48.60;;;;;;5065897;28;20730;-41
2022/01/15 11:23:38;;;;;;;1.00;0.90;;;23.80;48.60;;;;;;5051534;28;20310;-40
2022/01/15 11:26:11;;;;;;;3.90;1.10;;;23.80;48.70;;;;;;5048472;28;20358;-44
2022/01/15 11:28:43;;;;;;;1.95;1.13;;;23.80;48.70;;;;;;5065448;28;20642;-42
2022/01/15 11:31:17;;;;;;;2.15;1.20;;;23.70;48.70;;;;;;5051103;28;20196;-39
2022/01/15 11:33:52;;;;;;;1.77;1.20;;;23.70;48.70;;;;;;5042820;28;20759;-45
2022/01/15 11:36:32;;;;;;;1.48;1.15;;;23.70;48.70;;;;;;5036338;28;20283;-40
2022/01/15 11:39:05;;;;;;;1.58;1.15;;;23.60;48.80;;;;;;5043420;28;20298;-41
2022/01/15 11:41:43;;;;;;;1.75;1.23;;;23.60;48.80;;;;;;5046318;28;20196;-47
2022/01/15 11:44:17;;;;;;;1.67;1.10;;;23.60;48.80;;;;;;5036500;28;20254;-40
2022/01/15 11:46:53;;;;;;;2.25;1.25;;;23.50;48.80;;;;;;5039618;28;20307;-40
2022/01/15 11:49:41;;;;;;;1.58;1.05;;;23.40;48.80;;;;;;5042805;28;20199;-40
2022/01/15 11:52:43;;;;;;;2.00;1.33;;;23.40;48.80;;;;;;5048991;28;20200;-41
2022/01/15 11:55:21;;;;;;;1.55;1.02;;;23.40;48.90;;;;;;5041442;28;20206;-45
2022/01/15 11:57:58;;;;;;;3.63;1.30;;;23.40;48.80;;;;;;5046691;28;20205;-40
2022/01/15 12:00:31;;;;;;;1.65;1.08;;;23.40;48.70;;;;;;5050595;28;20195;-42
2022/01/15 12:03:06;;;;;;;1.40;1.00;;;23.30;48.70;;;;;;5042727;28;20302;-40
2022/01/15 12:05:40;;;;;;;2.00;1.23;;;23.30;48.70;;;;;;5048247;28;20411;-40
2022/01/15 12:08:36;;;;;;;1.73;0.93;;;23.30;48.70;;;;;;5048498;28;20198;-40
2022/01/15 12:11:08;;;;;;;1.75;1.20;;;23.30;48.80;;;;;;5044970;28;20738;-40
2022/01/15 12:13:56;;;;;;;1.42;1.10;;;23.20;48.80;;;;;;5049951;28;20298;-40
2022/01/15 12:16:36;;;;;;;1.27;0.88;;;23.20;48.80;;;;;;5034847;28;20206;-40
2022/01/15 12:19:09;;;;;;;2.25;1.00;;;23.20;48.80;;;;;;5043081;28;20233;-43
2022/01/15 12:21:47;;;;;;;2.28;1.15;;;23.20;48.80;;;;;;5048109;28;20714;-41
2022/01/15 12:24:44;;;;;;;2.45;1.00;;;23.10;48.90;;;;;;5046091;28;20306;-41
2022/01/15 12:27:16;;;;;;;1.85;1.00;;;23.10;48.90;;;;;;5040964;28;20255;-40
2022/01/15 12:29:47;;;;;;;2.63;1.17;;;23.00;48.80;;;;;;5036003;28;20260;-40
2022/01/15 12:32:31;;;;;;;1.20;1.08;;;23.00;48.90;;;;;;5047244;28;20287;-43
2022/01/15 12:35:05;;;;;;;1.15;1.00;;;23.00;48.90;;;;;;5040853;28;21475;-44
2022/01/15 12:37:35;;;;;;;1.08;0.82;;;22.90;48.90;;;;;;5050414;28;20291;-42
2022/01/15 12:40:06;;;;;;;1.20;0.95;;;22.90;48.90;;;;;;5046102;28;20227;-45
2022/01/15 12:42:37;;;;;;;2.33;1.02;;;22.90;48.90;;;;;;5044888;28;20204;-44
2022/01/15 12:45:08;;;;;;;3.50;0.93;;;22.90;48.90;;;;;;5038782;28;20187;-44
2022/01/15 12:47:48;;;;;;;1.70;0.90;;;22.80;48.90;;;;;;5041870;28;21025;-40
2022/01/15 12:50:20;;;;;;;1.25;0.90;;;22.80;48.90;;;;;;5045750;28;20202;-40
2022/01/15 12:53:02;;;;;;;2.42;1.20;;;22.80;48.90;;;;;;5048688;28;20191;-40
2022/01/15 12:55:34;;;;;;;1.88;1.10;;;22.80;48.90;;;;;;5044436;28;20207;-40
2022/01/15 12:58:06;;;;;;;1.30;0.90;;;22.80;48.90;;;;;;5046883;28;20224;-40
2022/01/15 13:00:37;;;;;;;1.92;0.90;;;22.70;48.90;;;;;;5039458;28;20282;-44
2022/01/15 13:03:09;;;;;;;2.15;1.05;;;22.70;48.90;;;;;;5043406;28;20302;-45
2022/01/15 13:05:43;;;;;;;1.65;0.93;;;22.70;49.00;;;;;;5047770;28;20219;-40
2022/01/15 13:08:15;;;;;;;1.60;0.80;;;22.60;49.00;;;;;;5043978;28;20698;-43
2022/01/15 13:10:51;;;;;;;2.28;1.10;;;22.60;49.00;;;;;;5043748;28;20210;-42
2022/01/15 13:13:24;;;;;;;2.03;0.90;;;22.60;49.00;;;;;;5048816;28;20215;-47
2022/01/15 13:16:05;;;;;;;1.52;0.95;;;22.50;48.90;;;;;;5036823;28;20747;-44
2022/01/15 13:18:38;;;;;;;1.25;0.85;;;22.50;49.00;;;;;;5036419;28;20242;-40
2022/01/15 13:21:12;;;;;;;0.95;0.82;;;22.50;49.00;;;;;;5046529;28;20271;-40
2022/01/15 13:23:44;;;;;;;1.45;1.13;;;22.50;49.10;;;;;;5040846;28;20301;-42
2022/01/15 13:26:15;;;;;;;1.98;1.05;;;22.40;49.00;;;;;;5033283;28;20302;-40
2022/01/15 13:28:46;;;;;;;1.85;1.05;;;22.40;49.00;;;;;;5045298;28;20282;-41
2022/01/15 13:31:17;;;;;;;1.23;0.85;;;22.40;49.00;;;;;;5044417;28;20278;-40
2022/01/15 13:33:49;;;;;;;1.27;0.93;;;22.40;49.00;;;;;;5033306;28;20243;-41